createdAt,value
2022-08-02T00:04:05.101Z,99379.52
2022-08-02T00:09:08.323Z,99374.57
2022-08-02T00:14:11.147Z,99374.42
2022-08-02T00:19:14.977Z,99377.10
2022-08-02T00:24:28.552Z,99375.32
2022-08-02T00:29:33.369Z,99378.01
2022-08-02T00:34:38.001Z,99375.81
2022-08-02T00:39:43.125Z,99378.67
2022-08-02T00:44:46.255Z,99378.42
2022-08-02T00:49:49.965Z,99379.71
2022-08-02T00:54:55.932Z,99379.52
2022-08-02T00:59:58.949Z,99382.92
2022-08-02T01:05:01.901Z,99388.84
2022-08-02T01:10:06.602Z,99385.77
2022-08-02T01:15:11.695Z,99387.87
2022-08-02T01:21:08.667Z,99388.59
2022-08-02T01:26:43.432Z,99391.80
2022-08-02T01:32:11.920Z,99395.44
2022-08-02T01:37:34.207Z,99395.52
2022-08-02T01:42:48.803Z,99399.53
2022-08-02T01:47:54.081Z,99405.30
2022-08-02T01:53:03.418Z,99398.30
2022-08-02T01:58:09.134Z,99403.33
2022-08-02T02:03:22.672Z,99398.66
2022-08-02T02:08:36.877Z,99399.23
2022-08-02T02:13:42.718Z,99399.38
2022-08-02T02:18:49.240Z,99394.55
2022-08-02T02:23:52.346Z,99394.56
2022-08-02T02:28:56.704Z,99397.75
2022-08-02T02:34:14.996Z,99396.38
2022-08-02T02:39:22.988Z,99391.27
2022-08-02T02:44:28.457Z,99401.06
2022-08-02T02:49:36.862Z,99403.62
2022-08-02T02:54:40.485Z,99408.66
2022-08-02T02:59:49.578Z,99404.02
2022-08-02T03:04:57.976Z,99399.77
2022-08-02T03:10:04.772Z,99398.21
2022-08-02T03:15:12.653Z,99400.91
2022-08-02T03:20:19.952Z,99400.46
2022-08-02T03:25:22.971Z,99402.29
2022-08-02T03:30:27.873Z,99409.16
2022-08-02T03:35:30.980Z,99409.17
2022-08-02T03:40:35.251Z,99408.80
2022-08-02T03:45:45.582Z,99414.70
2022-08-02T03:50:51.575Z,99422.83
2022-08-02T03:55:57.328Z,99429.56
2022-08-02T04:01:03.457Z,99430.73
2022-08-02T04:06:09.532Z,99434.69
2022-08-02T04:11:30.953Z,99438.70
2022-08-02T04:16:44.835Z,99439.22
2022-08-02T04:21:52.570Z,99447.00
2022-08-02T04:27:19.119Z,99451.41
2022-08-02T04:32:23.261Z,99459.56
2022-08-02T04:37:27.423Z,99456.06
2022-08-02T04:42:30.515Z,99456.33
2022-08-02T04:47:54.465Z,99460.50
2022-08-02T04:52:56.422Z,99460.71
2022-08-02T04:58:03.506Z,99467.88
2022-08-02T05:03:07.456Z,99467.32
2022-08-02T05:08:10.451Z,99471.45
2022-08-02T05:13:13.267Z,99471.50
2022-08-02T05:18:16.750Z,99480.07
2022-08-02T05:23:20.799Z,99480.64
2022-08-02T05:28:23.844Z,99483.86
2022-08-02T05:33:29.674Z,99484.33
2022-08-02T05:38:32.729Z,99499.02
2022-08-02T05:43:40.332Z,99497.50
2022-08-02T05:48:45.119Z,99503.31
2022-08-02T05:53:59.255Z,99504.20
2022-08-02T05:59:13.904Z,99509.04
2022-08-02T06:04:26.536Z,99512.60
2022-08-02T06:09:30.040Z,99513.54
2022-08-02T06:14:34.412Z,99516.26
2022-08-02T06:19:51.740Z,99523.34
2022-08-02T06:24:59.276Z,99530.63
2022-08-02T06:30:03.025Z,99536.64
2022-08-02T06:35:06.926Z,99540.59
2022-08-02T06:40:21.955Z,99548.89
2022-08-02T06:45:27.344Z,99558.59
2022-08-02T06:50:31.982Z,99555.91
2022-08-02T06:55:36.800Z,99562.14
2022-08-02T07:00:47.493Z,99561.02
2022-08-02T07:05:54.400Z,99554.14
2022-08-02T07:10:58.587Z,99565.90
2022-08-02T07:16:05.465Z,99561.64
2022-08-02T07:21:08.670Z,99558.19
2022-08-02T07:26:12.461Z,99560.25
2022-08-02T07:31:15.457Z,99562.10
2022-08-02T07:36:22.602Z,99565.05
2022-08-02T07:41:26.097Z,99564.39
2022-08-02T07:46:33.511Z,99563.96
2022-08-02T07:51:36.840Z,99568.05
2022-08-02T07:56:42.782Z,99572.76
2022-08-02T08:01:46.174Z,99577.94
2022-08-02T08:06:52.187Z,99571.52
2022-08-02T08:11:55.225Z,99585.15
2022-08-02T08:16:58.285Z,99584.55
2022-08-02T08:22:02.047Z,99584.76
2022-08-02T08:27:05.789Z,99582.93
2022-08-02T08:32:16.249Z,99586.85
2022-08-02T08:37:21.176Z,99589.44
2022-08-02T08:42:24.164Z,99592.88
2022-08-02T08:47:35.741Z,99590.85
2022-08-02T08:53:15.329Z,99594.83
2022-08-02T08:58:19.481Z,99599.92
2022-08-02T09:03:22.475Z,99607.27
2022-08-02T09:08:26.010Z,99606.38
2022-08-02T09:13:45.230Z,99609.84
2022-08-02T09:18:50.233Z,99619.58
2022-08-02T09:23:53.249Z,99621.44
2022-08-02T09:29:02.742Z,99621.48
2022-08-02T09:34:06.260Z,99617.59
2022-08-02T09:39:12.947Z,99617.73
2022-08-02T09:44:18.625Z,99620.38
2022-08-02T09:49:22.066Z,99621.79
2022-08-02T09:54:29.103Z,99619.38
2022-08-02T09:59:32.243Z,99612.19
2022-08-02T10:04:52.901Z,99608.67
2022-08-02T10:09:57.563Z,99608.84
2022-08-02T10:15:00.635Z,99604.44
2022-08-02T10:20:05.145Z,99604.67
2022-08-02T10:25:09.980Z,99601.38
2022-08-02T10:30:13.422Z,99599.52
2022-08-02T10:35:25.621Z,99597.82
2022-08-02T10:40:55.679Z,99594.80
2022-08-02T10:46:35.894Z,99597.66
2022-08-02T10:52:03.340Z,99596.92
2022-08-02T10:57:37.038Z,99599.42
2022-08-02T11:02:47.258Z,99594.61
2022-08-02T11:07:56.699Z,99601.23
2022-08-02T11:13:15.054Z,99603.77
2022-08-02T11:18:23.889Z,99603.94
2022-08-02T11:23:44.812Z,99603.98
2022-08-02T11:28:50.992Z,99598.15
2022-08-02T11:33:54.606Z,99601.93
2022-08-02T11:39:12.661Z,99596.38
2022-08-02T11:44:20.431Z,99591.73
2022-08-02T11:49:27.427Z,99591.14
2022-08-02T11:54:35.553Z,99599.86
2022-08-02T11:59:43.918Z,99592.61
2022-08-02T12:04:59.020Z,99590.05
2022-08-02T12:10:16.889Z,99598.05
2022-08-02T12:15:44.793Z,99600.77
2022-08-02T12:20:48.006Z,99596.44
2022-08-02T12:26:20.875Z,99589.02
2022-08-02T12:31:56.445Z,99588.38
2022-08-02T12:37:08.521Z,99584.80
2022-08-02T12:42:15.480Z,99591.78
2022-08-02T12:47:21.811Z,99590.04
2022-08-02T12:52:25.002Z,99587.17
2022-08-02T12:57:27.969Z,99588.67
2022-08-02T13:02:34.960Z,99595.06
2022-08-02T13:07:37.970Z,99597.22
2022-08-02T13:12:41.514Z,99597.36
2022-08-02T13:17:45.028Z,99599.61
2022-08-02T13:22:52.752Z,99596.30
2022-08-02T13:27:56.797Z,99591.39
2022-08-02T13:33:01.245Z,99592.38
2022-08-02T13:38:06.736Z,99597.02
2022-08-02T13:43:09.758Z,99600.02
2022-08-02T13:48:17.138Z,99601.13
2022-08-02T13:53:21.577Z,99597.99
2022-08-02T13:58:24.721Z,99600.84
2022-08-02T14:04:08.001Z,99602.48
2022-08-02T14:08:50.790Z,99603.66
2022-08-02T14:13:53.761Z,99602.30
2022-08-02T14:18:57.609Z,99601.31
2022-08-02T14:24:00.620Z,99599.42
2022-08-02T14:29:04.736Z,99598.67
2022-08-02T14:34:11.365Z,99596.02
2022-08-02T14:39:14.769Z,99598.30
2022-08-02T14:44:17.789Z,99599.99
2022-08-02T14:49:24.425Z,99599.09
2022-08-02T14:54:32.019Z,99598.48
2022-08-02T14:59:35.162Z,99598.02
2022-08-02T15:04:43.236Z,99601.36
2022-08-02T15:09:46.712Z,99601.77
2022-08-02T15:14:49.751Z,99605.02
2022-08-02T15:19:57.507Z,99606.59
2022-08-02T15:25:03.580Z,99610.94
2022-08-02T15:30:07.087Z,99609.84
2022-08-02T15:35:10.100Z,99612.13
2022-08-02T15:40:13.351Z,99613.84
2022-08-02T15:45:16.711Z,99612.34
2022-08-02T15:50:21.167Z,99615.45
2022-08-02T15:55:24.186Z,99616.94
2022-08-02T16:00:30.056Z,99622.83
2022-08-02T16:05:33.212Z,99625.46
2022-08-02T16:10:36.392Z,99618.37
2022-08-02T16:15:39.403Z,99624.20
2022-08-02T16:20:42.417Z,99621.70
2022-08-02T16:25:45.414Z,99623.89
2022-08-02T16:30:59.433Z,99626.73
2022-08-02T16:36:13.858Z,99634.15
2022-08-02T16:41:16.994Z,99640.67
2022-08-02T16:46:20.082Z,99643.84
2022-08-02T16:51:23.136Z,99651.91
2022-08-02T16:56:26.704Z,99654.73
2022-08-02T17:02:10.886Z,99655.65
2022-08-02T17:06:52.886Z,99652.98
2022-08-02T17:11:55.865Z,99652.68
2022-08-02T17:16:58.858Z,99656.99
2022-08-02T17:22:01.854Z,99652.89
2022-08-02T17:27:05.132Z,99660.15
2022-08-02T17:32:11.610Z,99658.33
2022-08-02T17:37:14.906Z,99658.61
2022-08-02T17:42:23.616Z,99663.11
2022-08-02T17:47:30.761Z,99668.34
2022-08-02T17:52:53.403Z,99662.89
2022-08-02T18:03:19.635Z,99670.70
2022-08-02T18:08:25.953Z,99669.08
2022-08-02T18:13:33.112Z,99673.10
2022-08-02T18:18:39.085Z,99672.58
2022-08-02T18:23:58.872Z,99678.48
2022-08-02T18:29:05.133Z,99679.83
2022-08-02T18:34:08.731Z,99680.58
2022-08-02T18:39:11.785Z,99677.15
2022-08-02T18:44:15.891Z,99681.34
2022-08-02T18:49:19.797Z,99684.60
2022-08-02T18:54:26.774Z,99690.16
2022-08-02T18:59:37.545Z,99695.73
2022-08-02T19:04:43.852Z,99708.55
2022-08-02T19:09:50.106Z,99711.33
2022-08-02T19:14:53.586Z,99715.42
2022-08-02T19:19:59.838Z,99717.64
2022-08-02T19:25:02.971Z,99717.79
2022-08-02T19:30:07.551Z,99717.95
2022-08-02T19:35:19.782Z,99717.33
2022-08-02T19:40:33.355Z,99712.64
2022-08-02T19:45:50.089Z,99711.01
2022-08-02T19:51:00.640Z,99714.31
2022-08-02T19:56:05.024Z,99711.83
2022-08-02T20:01:09.654Z,99705.68
2022-08-02T20:06:29.327Z,99710.45
2022-08-02T20:11:35.057Z,99715.23
2022-08-02T20:16:38.405Z,99709.94
2022-08-02T20:21:52.917Z,99713.50
2022-08-02T20:27:01.533Z,99712.23
2022-08-02T20:32:06.501Z,99716.57
2022-08-02T20:38:00.171Z,99716.47
2022-08-02T20:42:34.858Z,99716.76
2022-08-02T20:47:39.611Z,99715.20
2022-08-02T20:52:47.816Z,99714.38
2022-08-02T20:58:00.381Z,99717.98
2022-08-02T21:03:06.283Z,99712.65
2022-08-02T21:08:14.859Z,99714.38
2022-08-02T21:13:22.904Z,99711.36
2022-08-02T21:18:35.616Z,99708.36
2022-08-02T21:23:44.922Z,99708.41
2022-08-02T21:28:58.167Z,99710.67
2022-08-02T21:34:21.621Z,99717.02
2022-08-02T21:39:25.774Z,99712.90
2022-08-02T21:44:29.564Z,99712.90
2022-08-02T21:50:08.921Z,99714.55
2022-08-02T21:54:56.870Z,99714.92
2022-08-02T22:00:01.606Z,99717.08
2022-08-02T22:05:06.212Z,99724.31
2022-08-02T22:10:17.270Z,99727.77
2022-08-02T22:15:25.676Z,99725.63
2022-08-02T22:20:39.149Z,99727.27
2022-08-02T22:25:44.702Z,99726.78
2022-08-02T22:30:50.567Z,99725.58
2022-08-02T22:35:57.245Z,99734.55
2022-08-02T22:41:00.423Z,99731.34
2022-08-02T22:46:03.943Z,99734.21
2022-08-02T22:51:07.104Z,99738.92
2022-08-02T22:56:12.057Z,99734.73
2022-08-02T22:58:51.032Z,99669.67
2022-08-02T23:01:15.273Z,99736.37
2022-08-02T23:06:22.699Z,99740.35
2022-08-02T23:11:26.024Z,99744.01
2022-08-02T23:16:54.988Z,99740.83
2022-08-02T23:22:01.567Z,99738.41
2022-08-02T23:27:06.159Z,99734.92
2022-08-02T23:32:09.397Z,99734.71
2022-08-02T23:37:12.528Z,99732.77
2022-08-02T23:42:18.515Z,99725.93
2022-08-02T23:47:22.529Z,99721.02
2022-08-02T23:52:25.603Z,99721.21
2022-08-02T23:57:30.657Z,99725.97
